Time;durP1;ratioP1;P1;durP2;ratioP2;P2;SDS_P1;SDS_P2;PMS_P1;PMS_P2;Temp;Humidity;BMP_temperature;BMP_pressure;BME280_temperature;BME280_humidity;BME280_pressure;Samples;Min_cycle;Max_cycle;Signal;HPM_P1;HPM_P2
2023/02/18 00:11:52;;;;;;;2.07;0.90;;;;;;;7.48;69.77;99891.97;30733782;28;97195;-71
2023/02/18 00:26:52;;;;;;;0.47;0.40;;;;;;;7.33;67.54;99876.66;30742988;28;97636;-69
2023/02/18 00:41:53;;;;;;;0.80;0.70;;;;;;;7.18;66.39;99904.72;30753087;28;97447;-69
2023/02/18 00:56:53;;;;;;;2.10;0.73;;;;;;;7.06;64.60;99886.41;30751958;28;97506;-68
2023/02/18 01:11:54;;;;;;;3.85;0.70;;;;;;;6.88;63.95;99923.53;30750415;28;96683;-71
2023/02/18 01:26:54;;;;;;;0.73;0.55;;;;;;;6.73;62.08;99931.19;30749256;28;96644;-68
2023/02/18 01:41:54;;;;;;;4.60;0.70;;;;;;;6.54;60.87;99932.16;30746422;28;96726;-69
2023/02/18 01:56:58;;;;;;;1.63;0.50;;;;;;;6.46;60.45;99947.97;30746063;28;96688;-71
2023/02/18 02:12:09;;;;;;;2.30;0.83;;;;;;;6.24;60.09;99935.97;30744516;28;96713;-70
2023/02/18 02:27:27;;;;;;;5.85;0.93;;;;;;;5.88;60.80;99949.09;30743755;28;96569;-68
2023/02/18 02:42:46;;;;;;;8.75;1.20;;;;;;;5.82;62.01;99942.53;30742136;28;97126;-69
2023/02/18 02:57:54;;;;;;;3.83;1.15;;;;;;;5.80;60.62;99944.50;30740997;28;96661;-70
2023/02/18 03:13:23;;;;;;;1.88;0.50;;;;;;;5.75;58.91;99947.59;30739334;28;97302;-70
2023/02/18 03:28:30;;;;;;;0.77;0.40;;;;;;;5.58;58.25;99967.69;30738092;28;96685;-68
2023/02/18 03:43:31;;;;;;;3.25;0.47;;;;;;;5.43;57.10;99980.50;30736568;28;96682;-68
2023/02/18 03:58:31;;;;;;;4.07;0.60;;;;;;;5.32;56.97;99993.88;30749729;28;99488;-71
2023/02/18 04:13:32;;;;;;;1.02;0.40;;;;;;;5.13;56.82;100009.75;30732666;28;96620;-71
2023/02/18 04:28:32;;;;;;;2.72;0.70;;;;;;;5.05;56.90;100013.91;30731395;28;97411;-70
2023/02/18 04:43:33;;;;;;;1.13;0.52;;;;;;;5.31;57.04;100005.41;30729066;28;96682;-69
2023/02/18 04:58:33;;;;;;;2.70;0.43;;;;;;;5.48;56.94;100008.31;30729631;28;97401;-67
2023/02/18 05:13:34;;;;;;;0.65;0.30;;;;;;;5.61;56.51;100014.13;30739641;28;97421;-69
2023/02/18 05:28:34;;;;;;;2.10;0.57;;;;;;;5.59;55.91;100026.63;30748641;28;98306;-70
2023/02/18 05:44:29;;;;;;;5.20;1.23;;;;;;;5.69;55.19;100045.97;30817027;28;96601;-68
2023/02/18 05:58:55;;;;;;;2.05;0.45;;;;;;;5.87;54.43;100042.59;30865347;28;97141;-67
2023/02/18 06:13:57;;;;;;;1.60;0.40;;;;;;;6.02;53.98;100059.69;30862668;28;97091;-70
2023/02/18 06:28:57;;;;;;;1.17;0.47;;;;;;;6.24;53.06;100061.13;30856745;28;96684;-68
2023/02/18 06:43:57;;;;;;;3.13;0.50;;;;;;;6.41;52.68;100088.66;30860876;28;96764;-69
2023/02/18 06:58:58;;;;;;;1.58;0.63;;;;;;;6.43;52.75;100077.91;30858532;28;96619;-67
2023/02/18 07:13:58;;;;;;;1.27;0.55;;;;;;;6.45;52.72;100089.19;30858774;28;96590;-68
2023/02/18 07:28:59;;;;;;;2.50;0.70;;;;;;;6.52;52.61;100073.56;30856575;28;97116;-76
2023/02/18 07:43:59;;;;;;;1.75;0.70;;;;;;;6.72;52.68;100085.69;30852807;28;97495;-67
2023/02/18 07:59:00;;;;;;;1.70;0.75;;;;;;;7.07;52.08;100089.41;30855387;28;96841;-67
2023/02/18 08:14:00;;;;;;;1.70;0.77;;;;;;;7.21;51.57;100079.28;30848030;28;96582;-68
2023/02/18 08:29:01;;;;;;;1.75;0.80;;;;;;;7.59;51.12;100098.50;30730515;28;97339;-67
2023/02/18 08:44:02;;;;;;;4.10;0.80;;;;;;;7.83;51.13;100067.84;30732377;28;97264;-67
2023/02/18 08:59:02;;;;;;;5.35;0.82;;;;;;;8.01;50.73;100076.59;30763860;28;97245;-68
2023/02/18 09:14:03;;;;;;;2.60;1.05;;;;;;;7.94;49.94;100073.72;30747595;28;96610;-68
2023/02/18 09:29:03;;;;;;;2.50;0.50;;;;;;;8.23;49.89;100071.72;30745657;28;98530;-68
2023/02/18 09:44:25;;;;;;;3.97;1.08;;;;;;;8.36;50.39;100066.81;30748366;28;96774;-68
2023/02/18 09:59:26;;;;;;;1.10;0.50;;;;;;;8.54;51.00;100065.94;30757263;28;96855;-68
2023/02/18 10:14:28;;;;;;;2.42;0.70;;;;;;;8.01;51.50;100068.63;30741141;28;97078;-68
2023/02/18 10:29:31;;;;;;;3.23;0.80;;;;;;;7.71;53.39;100036.28;30768405;28;97238;-67
2023/02/18 10:44:53;;;;;;;3.97;1.30;;;;;;;7.36;56.20;100010.69;30844706;28;96794;-66
2023/02/18 11:00:13;;;;;;;5.50;1.93;;;;;;;7.57;58.16;99959.94;30859076;28;97461;-66
2023/02/18 11:15:14;;;;;;;6.23;1.40;;;;;;;7.58;58.30;99933.28;30853877;28;97064;-66
2023/02/18 11:30:37;;;;;;;6.53;2.35;;;;;;;7.48;59.54;99914.03;30856345;28;97881;-67
2023/02/18 11:45:37;;;;;;;8.80;2.00;;;;;;;7.21;61.00;99862.84;30813281;28;97141;-66
2023/02/18 12:00:41;;;;;;;7.28;2.45;;;;;;;7.19;61.45;99822.44;30769244;28;98170;-66
2023/02/18 12:15:47;;;;;;;9.90;2.90;;;;;;;6.73;63.17;99782.09;30742035;28;96656;-66
2023/02/18 12:31:09;;;;;;;9.50;3.33;;;;;;;6.41;65.32;99747.31;30781286;28;97085;-66
2023/02/18 12:46:44;;;;;;;11.40;4.20;;;;;;;6.22;67.42;99705.16;30761228;28;97251;-66
2023/02/18 13:01:55;;;;;;;10.07;2.95;;;;;;;6.26;68.93;99643.88;30783440;28;96693;-66
2023/02/18 13:16:58;;;;;;;8.43;3.75;;;;;;;5.99;70.29;99599.91;30819494;28;96973;-65
2023/02/18 13:32:21;;;;;;;11.80;5.23;;;;;;;5.94;72.07;99559.84;30808871;28;97120;-65
2023/02/18 13:47:41;;;;;;;9.88;5.20;;;;;;;5.95;73.21;99529.78;30798667;28;97155;-66
2023/02/18 14:02:57;;;;;;;13.05;5.57;;;;;;;5.95;74.04;99513.91;30734575;28;96603;-67
2023/02/18 14:18:18;;;;;;;13.70;5.22;;;;;;;5.97;75.07;99468.81;30732140;28;96890;-67
2023/02/18 14:33:19;;;;;;;14.40;6.43;;;;;;;6.13;75.62;99431.88;30739318;28;96966;-66
2023/02/18 14:48:22;;;;;;;13.80;7.57;;;;;;;6.19;76.07;99404.81;30728225;28;96714;-66
2023/02/18 15:03:26;;;;;;;13.73;7.67;;;;;;;6.34;76.87;99405.00;30794709;28;97947;-66
2023/02/18 15:18:39;;;;;;;15.53;8.47;;;;;;;6.58;77.96;99413.97;30782328;28;97215;-66
2023/02/18 15:33:43;;;;;;;2.63;1.63;;;;;;;7.85;79.80;99384.34;30828795;28;97189;-66
2023/02/18 15:48:46;;;;;;;2.83;1.50;;;;;;;8.68;79.00;99380.22;30844028;28;97357;-66
2023/02/18 16:03:48;;;;;;;2.13;0.80;;;;;;;9.11;77.25;99356.59;30798661;28;97324;-65
2023/02/18 16:18:48;;;;;;;1.83;0.90;;;;;;;9.22;76.14;99375.75;30792720;28;97641;-66
2023/02/18 16:33:49;;;;;;;2.13;1.05;;;;;;;9.27;74.92;99373.41;30776409;28;97282;-66
2023/02/18 16:48:53;;;;;;;1.38;0.88;;;;;;;9.43;74.07;99373.22;30736987;28;97429;-67
2023/02/18 17:03:55;;;;;;;4.40;0.97;;;;;;;9.56;73.22;99411.63;30839238;28;97061;-67
2023/02/18 17:18:56;;;;;;;1.67;1.03;;;;;;;9.43;72.83;99362.59;30804318;28;96980;-65
2023/02/18 17:34:01;;;;;;;1.85;0.93;;;;;;;9.50;72.31;99421.19;30788527;28;96773;-64
2023/02/18 17:49:01;;;;;;;1.53;0.90;;;;;;;9.54;71.82;99449.06;30787889;28;97308;-65
2023/02/18 18:04:01;;;;;;;2.40;1.08;;;;;;;9.43;71.37;99465.41;30747297;28;96996;-66
2023/02/18 18:19:02;;;;;;;3.28;1.30;;;;;;;9.38;71.53;99500.53;30770329;28;96849;-66
2023/02/18 18:34:02;;;;;;;1.33;1.23;;;;;;;9.38;71.58;99503.19;30852106;28;97012;-66
2023/02/18 18:49:03;;;;;;;2.45;1.10;;;;;;;9.42;71.66;99531.06;30807962;28;97533;-67
2023/02/18 19:04:03;;;;;;;2.35;1.33;;;;;;;9.40;71.48;99575.59;30848848;28;96648;-67
2023/02/18 19:19:03;;;;;;;6.15;1.90;;;;;;;9.27;72.22;99623.22;30845994;28;96858;-67
2023/02/18 19:34:04;;;;;;;3.92;0.75;;;;;;;8.97;72.51;99661.06;30802410;28;96764;-67
2023/02/18 19:49:04;;;;;;;3.28;1.35;;;;;;;8.48;73.54;99689.63;30735764;28;97278;-67
2023/02/18 20:04:05;;;;;;;2.78;0.80;;;;;;;8.14;74.36;99717.97;30755968;28;97304;-67
2023/02/18 20:19:05;;;;;;;3.80;1.23;;;;;;;7.84;75.13;99751.28;30769292;28;97493;-66
2023/02/18 20:34:06;;;;;;;1.92;0.90;;;;;;;7.57;75.32;99792.94;30728060;28;96815;-67
2023/02/18 20:49:13;;;;;;;2.70;1.52;;;;;;;7.39;76.02;99817.72;30737606;28;97364;-67
2023/02/18 21:04:17;;;;;;;5.47;2.80;;;;;;;7.06;75.49;99825.50;30802442;28;97647;-68
2023/02/18 21:19:18;;;;;;;2.03;1.20;;;;;;;7.03;76.09;99836.41;30865682;28;96705;-66
2023/02/18 21:34:19;;;;;;;1.73;1.13;;;;;;;6.88;75.85;99859.16;30858693;28;97234;-67
2023/02/18 21:49:20;;;;;;;2.28;1.13;;;;;;;6.74;76.03;99868.50;30855056;28;96769;-67
2023/02/18 22:04:20;;;;;;;2.22;1.10;;;;;;;6.59;76.42;99876.97;30855812;28;97177;-67
2023/02/18 22:19:21;;;;;;;3.03;1.67;;;;;;;6.30;76.24;99894.88;30811400;28;97202;-67
2023/02/18 22:34:22;;;;;;;3.97;2.08;;;;;;;6.05;76.31;99915.75;30814803;28;98405;-67
2023/02/18 22:49:23;;;;;;;3.00;1.88;;;;;;;6.09;76.51;99912.66;30860316;28;96625;-68
2023/02/18 23:04:24;;;;;;;4.72;2.42;;;;;;;6.12;77.27;99931.88;30861378;28;96533;-68
2023/02/18 23:19:26;;;;;;;6.05;2.38;;;;;;;6.21;76.89;99941.56;30860326;28;96659;-67
2023/02/18 23:34:27;;;;;;;4.95;2.88;;;;;;;6.23;76.95;99932.53;30859204;28;97029;-68
2023/02/18 23:49:27;;;;;;;5.90;3.08;;;;;;;6.26;77.44;99947.22;30858146;28;97081;-69
